AirNav   Phillips 66 Aviation Fuel
 
 309 users online  

4IS3 University of Chicago Hospitals Heliport
Chicago, Illinois, USA

GOING TO CHICAGO?


FAA INFORMATION EFFECTIVE 06 DECEMBER 2018

Location

FAA Identifier: 4IS3
Lat/Long: 41-47-27.3700N / 087-36-19.4300W
41-47.456167N / 087-36.323833W
41.7909361 / -87.6053972
(estimated)
Elevation: 665 ft. / 203 m (estimated)
Variation: 01W (1984)
Time zone: UTC -6 (UTC -5 during Daylight Saving Time)
Zip code: 60637

Heliport Operations

Heliport use: Private use, MEDICAL USE.
Activation date: 02/1984
Control tower: no
ARTCC: CHICAGO CENTER
FSS: KANKAKEE FLIGHT SERVICE STATION
Attendance: CONTINUOUS
Wind indicator: yes
Segmented circle: no
Beacon: white-green-yellow (heliport)
24 HRS

Heliport Communications

WX ASOS at MDW (7 nm W): PHONE 773-884-4424
WX AWOS-3PT at GYY (13 nm SE): 134.575 (219-944-0010)
WX AWOS-3 at IGQ (16 nm S): 119.275 (708-895-9526)
WX ASOS at ORD (17 nm NW): PHONE 773-462-0118
  • FREQ 129.475 AVBL FOR MEDICAL CNTR.

Nearby radio navigation aids

VOR radial/distance  VOR name  Freq  Var
CGTr353/16.9CHICAGO HEIGHTS VORTAC114.2002E
ORDr129/17.8CHICAGO O'HARE VOR/DME113.9002E
OBKr151/30.1NORTHBROOK VOR/DME113.0002W
EONr013/32.4PEOTONE VORTAC113.2002E
DPAr098/33.8DUPAGE VOR/DME108.4002E
JOTr063/35.2JOLIET VOR/DME112.3002E

Heliport Services

Runway Information

Helipad H1

Dimensions: 38 x 30 ft. / 12 x 9 m
Surface: pierced steel planking
ROOFTOP.
Runway edge lights: HELI LGTS WITH PERIMETER LGTS.
Latitude: 41-47.345500N
Longitude: 087-36.219500W
Elevation: 665.0 ft.
Traffic pattern: leftleft

Helipad H2

Dimensions: 50 x 50 ft. / 15 x 15 m
Surface: mats
Latitude: 41-47.458167N
Longitude: 087-36.325500W
Elevation: 665.0 ft.
Traffic pattern: leftleft

Heliport Ownership and Management from official FAA records

Ownership: Privately-owned
Owner: UNIV CHICAGO HOSPITALS
5841 S MARYLAND, MC 0952, RM C-38
CHICAGO, IL 60637
Phone 312-702-3222
Manager: DR. IRA BLUMEN
5841 S MARYLAND, MC 0952, RM C-38
CHICAGO, IL 60637
Phone 773-702-3222

Heliport Operational Statistics

Aircraft based on the field: 1
Helicopters: 1
    

Additional Remarks

FOR CD CTC CHICAGO APCH AT 847-289-0926.

Instrument Procedures

There are no published instrument procedures at 4IS3.

Some nearby airports with instrument procedures:

KMDW - Chicago Midway International Airport (7 nm W)
KGYY - Gary/Chicago International Airport (13 nm SE)
KIGQ - Lansing Municipal Airport (16 nm S)
KORD - Chicago O'Hare International Airport (17 nm NW)
05C - Griffith-Merrillville Airport (19 nm SE)
 
Loc | Ops | Rwys | IFR | FBO | Links
Com | Nav | Svcs | Stats | Notes


 
Area around 4IS3 (University of Chicago Hospitals Heliport)
 
Road maps at: MapQuest Bing Google
 
Aerial photo
No photo
 
Sectional chart

 
Airport distance calculator
Flying to University of Chicago Hospitals Heliport? Find the distance to fly.

From to 4IS3

Sunrise and sunset
Times for 11-Dec-2018
 Local
(UTC-6)
 Zulu
(UTC)
Morning civil twilight06:3712:37
Sunrise07:0913:09
Sunset16:1922:19
Evening civil twilight16:5022:50

Current date and time
Zulu (UTC)  11-Dec-2018 09:54:04
Local (UTC-6)  11-Dec-2018 03:54:04
 
METAR
4IS3 SuperAWOS
110915Z AUTO 23010G17KT 180V280 7SM M03/M04 A3009
KMDW 
6nm W 
110853Z 22009KT 6SM BR CLR M02/M06 A3009 RMK AO2 SLP202 T10221056 58010
KGYY 
13nm SE 
110935Z AUTO 20005KT 5SM BR CLR M03/M05 A3011 RMK AO2 T10321048
KIGQ 
16nm S 
110935Z AUTO 22006KT 5SM BR CLR M05/M07 A3010 RMK AO2 T10551069
KORD 
19nm NW 
110851Z 23009KT 7SM CLR M02/M05 A3007 RMK AO2 SLP190 T10221050 56010 $
TAF
KMDW 
6nm W 
110525Z 1106/1212 22009KT 5SM HZ SKC FM120000 18003KT P6SM FEW120 BKN250 FM121000 14007KT P6SM FEW010 SCT030 BKN050
KGYY 
13nm SE 
110525Z 1106/1206 22009KT 5SM HZ SKC FM120000 18003KT P6SM FEW120 BKN250
KORD 
19nm NW 
110525Z 1106/1212 23009KT 6SM HZ SKC FM120000 18003KT P6SM FEW120 BKN250 FM121000 14007KT P6SM FEW010 SCT030 BKN050
NOTAMs
Click for the latest NOTAMs
NOTAMs are issued by the DoD/FAA and will open in a separate window not controlled by AirNav.

 

 
 

Would you like to see your business listed on this page?

 If your business provides an interesting product or service to pilots, flight crews, aircraft, or users of the University of Chicago Hospitals Heliport, you should consider listing it here.  To start the listing process, click on the button below
 
Add a business
 

Other Pages about University of Chicago Hospitals Heliport

Update a link
 
Copyright © AirNav, LLC. All rights reserved. Privacy Policy  Contact